sensor_id;sensor_type;location;lat;lon;timestamp;pressure;altitude;pressure_sealevel;temperature
14666;BMP280;7420;53.574;10.040;2022-12-07T00:00:25;101229.16;;;3.03
14666;BMP280;7420;53.574;10.040;2022-12-07T00:02:50;101221.97;;;3.05
14666;BMP280;7420;53.574;10.040;2022-12-07T00:05:15;101218.06;;;3.09
14666;BMP280;7420;53.574;10.040;2022-12-07T00:07:41;101216.63;;;3.14
14666;BMP280;7420;53.574;10.040;2022-12-07T00:10:06;101220.69;;;3.09
14666;BMP280;7420;53.574;10.040;2022-12-07T00:12:31;101212.56;;;3.02
14666;BMP280;7420;53.574;10.040;2022-12-07T00:14:57;101207.59;;;2.99
14666;BMP280;7420;53.574;10.040;2022-12-07T00:17:22;101206.13;;;3.14
14666;BMP280;7420;53.574;10.040;2022-12-07T00:19:47;101198.41;;;3.13
14666;BMP280;7420;53.574;10.040;2022-12-07T00:22:12;101202.75;;;3.04
14666;BMP280;7420;53.574;10.040;2022-12-07T00:24:37;101177.75;;;3.00
14666;BMP280;7420;53.574;10.040;2022-12-07T00:27:03;101185.13;;;3.14
14666;BMP280;7420;53.574;10.040;2022-12-07T00:29:28;101193.50;;;3.18
14666;BMP280;7420;53.574;10.040;2022-12-07T00:31:53;101185.13;;;3.14
14666;BMP280;7420;53.574;10.040;2022-12-07T00:34:19;101183.09;;;3.26
14666;BMP280;7420;53.574;10.040;2022-12-07T00:36:45;101186.47;;;3.18
14666;BMP280;7420;53.574;10.040;2022-12-07T00:39:10;101194.13;;;3.12
14666;BMP280;7420;53.574;10.040;2022-12-07T00:41:35;101166.06;;;3.12
14666;BMP280;7420;53.574;10.040;2022-12-07T00:44:01;101187.81;;;3.22
14666;BMP280;7420;53.574;10.040;2022-12-07T00:46:26;101166.22;;;3.28
14666;BMP280;7420;53.574;10.040;2022-12-07T00:48:52;101173.03;;;3.21
14666;BMP280;7420;53.574;10.040;2022-12-07T00:51:18;101169.13;;;3.25
14666;BMP280;7420;53.574;10.040;2022-12-07T00:53:44;101171.22;;;3.22
14666;BMP280;7420;53.574;10.040;2022-12-07T00:56:43;101150.44;;;3.28
14666;BMP280;7420;53.574;10.040;2022-12-07T00:59:02;101157.19;;;3.31
14666;BMP280;7420;53.574;10.040;2022-12-07T01:01:29;101154.25;;;3.34
14666;BMP280;7420;53.574;10.040;2022-12-07T01:03:54;101145.88;;;3.30
14666;BMP280;7420;53.574;10.040;2022-12-07T01:06:20;101155.91;;;3.35
14666;BMP280;7420;53.574;10.040;2022-12-07T01:08:46;101143.22;;;3.30
14666;BMP280;7420;53.574;10.040;2022-12-07T01:11:13;101147.72;;;3.38
14666;BMP280;7420;53.574;10.040;2022-12-07T01:13:39;101136.22;;;3.38
14666;BMP280;7420;53.574;10.040;2022-12-07T01:16:05;101137.34;;;3.36
14666;BMP280;7420;53.574;10.040;2022-12-07T01:18:32;101132.78;;;3.21
14666;BMP280;7420;53.574;10.040;2022-12-07T01:20:58;101137.06;;;3.22
14666;BMP280;7420;53.574;10.040;2022-12-07T01:23:24;101128.16;;;3.32
14666;BMP280;7420;53.574;10.040;2022-12-07T01:25:56;101127.97;;;3.34
14666;BMP280;7420;53.574;10.040;2022-12-07T01:28:21;101130.84;;;3.23
14666;BMP280;7420;53.574;10.040;2022-12-07T01:30:54;101125.81;;;3.29
14666;BMP280;7420;53.574;10.040;2022-12-07T01:33:19;101134.97;;;3.25
14666;BMP280;7420;53.574;10.040;2022-12-07T01:35:44;101134.31;;;3.23
14666;BMP280;7420;53.574;10.040;2022-12-07T01:38:10;101136.94;;;3.23
14666;BMP280;7420;53.574;10.040;2022-12-07T01:40:35;101136.75;;;3.25
14666;BMP280;7420;53.574;10.040;2022-12-07T01:43:00;101149.31;;;3.31
14666;BMP280;7420;53.574;10.040;2022-12-07T01:47:55;101131.38;;;3.26
14666;BMP280;7420;53.574;10.040;2022-12-07T01:50:20;101133.69;;;3.29
14666;BMP280;7420;53.574;10.040;2022-12-07T01:52:47;101122.53;;;3.27
14666;BMP280;7420;53.574;10.040;2022-12-07T01:55:14;101117.25;;;3.27
14666;BMP280;7420;53.574;10.040;2022-12-07T01:57:41;101126.44;;;3.23
14666;BMP280;7420;53.574;10.040;2022-12-07T02:00:07;101123.13;;;3.21
14666;BMP280;7420;53.574;10.040;2022-12-07T02:02:33;101131.50;;;3.25
14666;BMP280;7420;53.574;10.040;2022-12-07T02:05:00;101128.50;;;3.20
14666;BMP280;7420;53.574;10.040;2022-12-07T02:07:26;101118.84;;;3.20
14666;BMP280;7420;53.574;10.040;2022-12-07T02:09:52;101124.91;;;3.21
14666;BMP280;7420;53.574;10.040;2022-12-07T02:12:17;101122.28;;;3.21
14666;BMP280;7420;53.574;10.040;2022-12-07T02:14:42;101118.84;;;3.20
14666;BMP280;7420;53.574;10.040;2022-12-07T02:22:11;101130.31;;;3.19
14666;BMP280;7420;53.574;10.040;2022-12-07T02:24:52;101119.94;;;3.18
14666;BMP280;7420;53.574;10.040;2022-12-07T02:27:27;101125.38;;;3.16
14666;BMP280;7420;53.574;10.040;2022-12-07T02:30:06;101123.41;;;3.18
14666;BMP280;7420;53.574;10.040;2022-12-07T02:35:20;101120.41;;;3.13
14666;BMP280;7420;53.574;10.040;2022-12-07T02:40:19;101108.94;;;3.14
14666;BMP280;7420;53.574;10.040;2022-12-07T02:42:47;101121.78;;;3.17
14666;BMP280;7420;53.574;10.040;2022-12-07T02:45:14;101119.59;;;3.13
14666;BMP280;7420;53.574;10.040;2022-12-07T02:47:40;101109.22;;;3.11
14666;BMP280;7420;53.574;10.040;2022-12-07T02:50:06;101117.13;;;3.11
14666;BMP280;7420;53.574;10.040;2022-12-07T02:52:32;101112.72;;;3.12
14666;BMP280;7420;53.574;10.040;2022-12-07T02:54:57;101117.97;;;3.12
14666;BMP280;7420;53.574;10.040;2022-12-07T02:57:27;101117.97;;;3.12
14666;BMP280;7420;53.574;10.040;2022-12-07T02:59:59;101131.53;;;3.07
14666;BMP280;7420;53.574;10.040;2022-12-07T03:10:19;101112.25;;;2.99
14666;BMP280;7420;53.574;10.040;2022-12-07T03:15:21;101122.66;;;2.91
14666;BMP280;7420;53.574;10.040;2022-12-07T03:17:51;101116.06;;;2.87
14666;BMP280;7420;53.574;10.040;2022-12-07T03:20:17;101114.28;;;2.87
14666;BMP280;7420;53.574;10.040;2022-12-07T03:22:44;101119.28;;;2.81
14666;BMP280;7420;53.574;10.040;2022-12-07T03:25:11;101117.25;;;2.75
14666;BMP280;7420;53.574;10.040;2022-12-07T03:27:43;101116.44;;;2.74
14666;BMP280;7420;53.574;10.040;2022-12-07T03:30:10;101113.53;;;2.77
14666;BMP280;7420;53.574;10.040;2022-12-07T03:32:45;101118.38;;;2.72
14666;BMP280;7420;53.574;10.040;2022-12-07T03:40:17;101121.31;;;2.69
14666;BMP280;7420;53.574;10.040;2022-12-07T03:42:44;101115.84;;;2.63
14666;BMP280;7420;53.574;10.040;2022-12-07T03:45:10;101127.44;;;2.60
14666;BMP280;7420;53.574;10.040;2022-12-07T03:47:58;101122.19;;;2.60
14666;BMP280;7420;53.574;10.040;2022-12-07T03:50:31;101120.25;;;2.62
14666;BMP280;7420;53.574;10.040;2022-12-07T03:53:05;101117.09;;;2.59
14666;BMP280;7420;53.574;10.040;2022-12-07T03:55:34;101113.81;;;2.57
14666;BMP280;7420;53.574;10.040;2022-12-07T03:58:08;101124.88;;;2.51
14666;BMP280;7420;53.574;10.040;2022-12-07T04:00:34;101120.78;;;2.48
14666;BMP280;7420;53.574;10.040;2022-12-07T04:02:59;101118.44;;;2.45
14666;BMP280;7420;53.574;10.040;2022-12-07T04:05:25;101132.25;;;2.47
14666;BMP280;7420;53.574;10.040;2022-12-07T04:07:50;101126.16;;;2.47
14666;BMP280;7420;53.574;10.040;2022-12-07T04:10:15;101124.41;;;2.38
14666;BMP280;7420;53.574;10.040;2022-12-07T04:12:41;101131.47;;;2.37
14666;BMP280;7420;53.574;10.040;2022-12-07T04:15:06;101129.81;;;2.36
14666;BMP280;7420;53.574;10.040;2022-12-07T04:17:31;101130.09;;;2.33
14666;BMP280;7420;53.574;10.040;2022-12-07T04:19:57;101127.34;;;2.35
14666;BMP280;7420;53.574;10.040;2022-12-07T04:22:22;101120.28;;;2.35
14666;BMP280;7420;53.574;10.040;2022-12-07T04:24:47;101121.53;;;2.31
14666;BMP280;7420;53.574;10.040;2022-12-07T04:27:13;101131.75;;;2.34
14666;BMP280;7420;53.574;10.040;2022-12-07T04:29:38;101124.44;;;2.28
14666;BMP280;7420;53.574;10.040;2022-12-07T04:32:03;101133.47;;;2.26
14666;BMP280;7420;53.574;10.040;2022-12-07T04:34:29;101129.31;;;2.23
14666;BMP280;7420;53.574;10.040;2022-12-07T04:36:54;101138.69;;;2.26
14666;BMP280;7420;53.574;10.040;2022-12-07T04:39:21;101140.34;;;2.27
14666;BMP280;7420;53.574;10.040;2022-12-07T04:41:47;101132.91;;;2.22
14666;BMP280;7420;53.574;10.040;2022-12-07T04:44:12;101138.44;;;2.20
14666;BMP280;7420;53.574;10.040;2022-12-07T04:46:39;101142.03;;;2.19
14666;BMP280;7420;53.574;10.040;2022-12-07T04:49:04;101137.09;;;2.16
14666;BMP280;7420;53.574;10.040;2022-12-07T04:51:30;101138.72;;;2.17
14666;BMP280;7420;53.574;10.040;2022-12-07T04:53:55;101137.91;;;2.16
14666;BMP280;7420;53.574;10.040;2022-12-07T04:56:21;101137.09;;;2.16
14666;BMP280;7420;53.574;10.040;2022-12-07T04:58:46;101131.53;;;2.19
14666;BMP280;7420;53.574;10.040;2022-12-07T05:01:12;101136.78;;;2.19
14666;BMP280;7420;53.574;10.040;2022-12-07T05:03:38;101138.06;;;2.15
14666;BMP280;7420;53.574;10.040;2022-12-07T05:06:03;101130.19;;;2.15
14666;BMP280;7420;53.574;10.040;2022-12-07T05:08:28;101131.59;;;2.09
14666;BMP280;7420;53.574;10.040;2022-12-07T05:10:54;101125.66;;;2.07
14666;BMP280;7420;53.574;10.040;2022-12-07T05:13:19;101130.22;;;2.05
14666;BMP280;7420;53.574;10.040;2022-12-07T05:15:44;101137.41;;;2.03
14666;BMP280;7420;53.574;10.040;2022-12-07T05:18:11;101132.56;;;2.08
14666;BMP280;7420;53.574;10.040;2022-12-07T05:20:38;101128.84;;;2.11
14666;BMP280;7420;53.574;10.040;2022-12-07T05:23:03;101134.75;;;2.13
14666;BMP280;7420;53.574;10.040;2022-12-07T05:25:28;101128.56;;;2.14
14666;BMP280;7420;53.574;10.040;2022-12-07T05:27:54;101131.00;;;2.15
14666;BMP280;7420;53.574;10.040;2022-12-07T05:30:19;101129.34;;;2.14
14666;BMP280;7420;53.574;10.040;2022-12-07T05:32:45;101128.84;;;2.11
14666;BMP280;7420;53.574;10.040;2022-12-07T05:35:10;101130.19;;;2.15
14666;BMP280;7420;53.574;10.040;2022-12-07T05:37:35;101121.66;;;2.13
14666;BMP280;7420;53.574;10.040;2022-12-07T05:40:00;101134.09;;;2.11
14666;BMP280;7420;53.574;10.040;2022-12-07T05:42:26;101133.91;;;2.12
14666;BMP280;7420;53.574;10.040;2022-12-07T05:44:51;101132.81;;;2.15
14666;BMP280;7420;53.574;10.040;2022-12-07T05:47:16;101123.16;;;2.15
14666;BMP280;7420;53.574;10.040;2022-12-07T05:49:41;101127.31;;;2.08
14666;BMP280;7420;53.574;10.040;2022-12-07T05:52:07;101126.59;;;2.16
14666;BMP280;7420;53.574;10.040;2022-12-07T05:54:32;101115.13;;;2.17
14666;BMP280;7420;53.574;10.040;2022-12-07T05:56:57;101121.66;;;2.13
14666;BMP280;7420;53.574;10.040;2022-12-07T05:59:23;101132.13;;;2.13
14666;BMP280;7420;53.574;10.040;2022-12-07T06:01:52;101126.72;;;2.14
14666;BMP280;7420;53.574;10.040;2022-12-07T06:04:18;101126.91;;;2.13
14666;BMP280;7420;53.574;10.040;2022-12-07T06:06:43;101122.97;;;2.17
14666;BMP280;7420;53.574;10.040;2022-12-07T06:09:09;101130.19;;;2.15
14666;BMP280;7420;53.574;10.040;2022-12-07T06:11:34;101125.38;;;2.10
14666;BMP280;7420;53.574;10.040;2022-12-07T06:14:18;101131.19;;;2.14
14666;BMP280;7420;53.574;10.040;2022-12-07T06:16:43;101118.34;;;2.11
14666;BMP280;7420;53.574;10.040;2022-12-07T06:19:08;101124.28;;;2.13
14666;BMP280;7420;53.574;10.040;2022-12-07T06:21:34;101117.66;;;2.09
14666;BMP280;7420;53.574;10.040;2022-12-07T06:23:59;101112.81;;;2.14
14666;BMP280;7420;53.574;10.040;2022-12-07T06:26:24;101116.13;;;2.06
14666;BMP280;7420;53.574;10.040;2022-12-07T06:28:50;101115.44;;;2.14
14666;BMP280;7420;53.574;10.040;2022-12-07T06:31:15;101109.50;;;2.12
14666;BMP280;7420;53.574;10.040;2022-12-07T06:33:41;101118.91;;;2.05
14666;BMP280;7420;53.574;10.040;2022-12-07T06:36:06;101109.78;;;2.09
14666;BMP280;7420;53.574;10.040;2022-12-07T06:38:32;101117.94;;;2.06
14666;BMP280;7420;53.574;10.040;2022-12-07T06:40:57;101111.72;;;2.07
14666;BMP280;7420;53.574;10.040;2022-12-07T06:43:22;101114.47;;;2.15
14666;BMP280;7420;53.574;10.040;2022-12-07T06:45:48;101111.38;;;2.19
14666;BMP280;7420;53.574;10.040;2022-12-07T06:48:13;101120.56;;;2.06
14666;BMP280;7420;53.574;10.040;2022-12-07T06:50:39;101119.88;;;2.04
14666;BMP280;7420;53.574;10.040;2022-12-07T06:53:04;101120.00;;;2.12
14666;BMP280;7420;53.574;10.040;2022-12-07T06:55:29;101112.75;;;2.23
14666;BMP280;7420;53.574;10.040;2022-12-07T06:57:54;101111.69;;;2.16
14666;BMP280;7420;53.574;10.040;2022-12-07T07:00:20;101106.72;;;2.13
14666;BMP280;7420;53.574;10.040;2022-12-07T07:02:45;101119.72;;;2.15
14666;BMP280;7420;53.574;10.040;2022-12-07T07:05:10;101114.88;;;2.10
14666;BMP280;7420;53.574;10.040;2022-12-07T07:07:35;101117.50;;;2.10
14666;BMP280;7420;53.574;10.040;2022-12-07T07:10:01;101113.84;;;2.21
14666;BMP280;7420;53.574;10.040;2022-12-07T07:12:26;101118.28;;;2.20
14666;BMP280;7420;53.574;10.040;2022-12-07T07:14:51;101113.50;;;2.16
14666;BMP280;7420;53.574;10.040;2022-12-07T07:17:16;101118.63;;;2.08
14666;BMP280;7420;53.574;10.040;2022-12-07T07:19:42;101117.94;;;2.06
14666;BMP280;7420;53.574;10.040;2022-12-07T07:22:07;101111.16;;;2.13
14666;BMP280;7420;53.574;10.040;2022-12-07T07:24:32;101119.84;;;2.13
14666;BMP280;7420;53.574;10.040;2022-12-07T07:26:57;101129.22;;;2.16
14666;BMP280;7420;53.574;10.040;2022-12-07T07:29:23;101126.59;;;2.16
14666;BMP280;7420;53.574;10.040;2022-12-07T07:31:48;101116.75;;;2.18
14666;BMP280;7420;53.574;10.040;2022-12-07T07:34:13;101119.72;;;2.15
14666;BMP280;7420;53.574;10.040;2022-12-07T07:36:38;101122.34;;;2.15
14666;BMP280;7420;53.574;10.040;2022-12-07T07:39:04;101128.91;;;2.19
14666;BMP280;7420;53.574;10.040;2022-12-07T07:41:30;101133.88;;;2.22
14666;BMP280;7420;53.574;10.040;2022-12-07T07:43:55;101131.00;;;2.15
14666;BMP280;7420;53.574;10.040;2022-12-07T07:46:20;101137.50;;;2.11
14666;BMP280;7420;53.574;10.040;2022-12-07T07:48:45;101136.88;;;2.26
14666;BMP280;7420;53.574;10.040;2022-12-07T07:51:11;101136.19;;;2.24
14666;BMP280;7420;53.574;10.040;2022-12-07T07:53:36;101139.50;;;2.26
14666;BMP280;7420;53.574;10.040;2022-12-07T07:56:01;101136.38;;;2.23
14666;BMP280;7420;53.574;10.040;2022-12-07T07:58:27;101145.84;;;2.33
14666;BMP280;7420;53.574;10.040;2022-12-07T08:00:52;101140.81;;;2.40
14666;BMP280;7420;53.574;10.040;2022-12-07T08:03:18;101126.88;;;2.39
14666;BMP280;7420;53.574;10.040;2022-12-07T08:05:43;101137.78;;;2.44
14666;BMP280;7420;53.574;10.040;2022-12-07T08:08:08;101141.88;;;2.47
14666;BMP280;7420;53.574;10.040;2022-12-07T08:10:34;101139.66;;;2.52
14666;BMP280;7420;53.574;10.040;2022-12-07T08:13:00;101143.84;;;2.45
14666;BMP280;7420;53.574;10.040;2022-12-07T08:15:42;101143.41;;;2.49
14666;BMP280;7420;53.574;10.040;2022-12-07T08:18:07;101137.72;;;2.54
14666;BMP280;7420;53.574;10.040;2022-12-07T08:20:33;101144.84;;;2.61
14666;BMP280;7420;53.574;10.040;2022-12-07T08:22:59;101141.41;;;2.61
14666;BMP280;7420;53.574;10.040;2022-12-07T08:25:24;101141.53;;;2.59
14666;BMP280;7420;53.574;10.040;2022-12-07T08:27:50;101135.47;;;2.59
14666;BMP280;7420;53.574;10.040;2022-12-07T08:30:16;101127.53;;;2.68
14666;BMP280;7420;53.574;10.040;2022-12-07T08:32:41;101137.59;;;2.73
14666;BMP280;7420;53.574;10.040;2022-12-07T08:35:06;101134.97;;;2.73
14666;BMP280;7420;53.574;10.040;2022-12-07T08:37:32;101127.63;;;2.76
14666;BMP280;7420;53.574;10.040;2022-12-07T08:39:58;101137.00;;;2.79
14666;BMP280;7420;53.574;10.040;2022-12-07T08:42:23;101135.28;;;2.87
14666;BMP280;7420;53.574;10.040;2022-12-07T08:44:52;101134.91;;;2.82
14666;BMP280;7420;53.574;10.040;2022-12-07T08:47:17;101135.59;;;2.84
14666;BMP280;7420;53.574;10.040;2022-12-07T08:49:44;101139.28;;;2.91
14666;BMP280;7420;53.574;10.040;2022-12-07T08:52:11;101142.56;;;2.93
14666;BMP280;7420;53.574;10.040;2022-12-07T08:54:36;101140.97;;;3.00
14666;BMP280;7420;53.574;10.040;2022-12-07T08:57:03;101138.66;;;2.97
14666;BMP280;7420;53.574;10.040;2022-12-07T08:59:29;101143.31;;;3.03
14666;BMP280;7420;53.574;10.040;2022-12-07T09:01:54;101140.38;;;3.06
14666;BMP280;7420;53.574;10.040;2022-12-07T09:04:19;101144.34;;;3.10
14666;BMP280;7420;53.574;10.040;2022-12-07T09:06:45;101151.94;;;3.13
14666;BMP280;7420;53.574;10.040;2022-12-07T09:09:11;101146.69;;;3.13
14666;BMP280;7420;53.574;10.040;2022-12-07T09:11:36;101148.63;;;3.11
14666;BMP280;7420;53.574;10.040;2022-12-07T09:14:01;101140.00;;;3.19
14666;BMP280;7420;53.574;10.040;2022-12-07T09:16:27;101150.00;;;3.15
14666;BMP280;7420;53.574;10.040;2022-12-07T09:18:52;101145.94;;;3.21
14666;BMP280;7420;53.574;10.040;2022-12-07T09:21:17;101144.50;;;3.26
14666;BMP280;7420;53.574;10.040;2022-12-07T09:23:43;101148.19;;;3.33
14666;BMP280;7420;53.574;10.040;2022-12-07T09:26:08;101144.81;;;3.23
14666;BMP280;7420;53.574;10.040;2022-12-07T09:28:33;101141.88;;;3.26
14666;BMP280;7420;53.574;10.040;2022-12-07T09:30:59;101150.19;;;3.22
14666;BMP280;7420;53.574;10.040;2022-12-07T09:33:24;101150.75;;;3.25
14666;BMP280;7420;53.574;10.040;2022-12-07T09:35:50;101144.56;;;3.34
14666;BMP280;7420;53.574;10.040;2022-12-07T09:38:16;101151.78;;;3.32
14666;BMP280;7420;53.574;10.040;2022-12-07T09:40:42;101147.19;;;3.34
14666;BMP280;7420;53.574;10.040;2022-12-07T09:43:12;101138.41;;;3.43
14666;BMP280;7420;53.574;10.040;2022-12-07T09:45:38;101134.13;;;3.42
14666;BMP280;7420;53.574;10.040;2022-12-07T09:48:03;101129.03;;;3.40
14666;BMP280;7420;53.574;10.040;2022-12-07T09:50:29;101136.91;;;3.40
14666;BMP280;7420;53.574;10.040;2022-12-07T09:53:00;101139.44;;;3.50
14666;BMP280;7420;53.574;10.040;2022-12-07T09:55:29;101148.97;;;3.51
14666;BMP280;7420;53.574;10.040;2022-12-07T09:57:54;101142.56;;;3.53
14666;BMP280;7420;53.574;10.040;2022-12-07T10:00:21;101128.00;;;3.59
14666;BMP280;7420;53.574;10.040;2022-12-07T10:02:50;101136.25;;;3.64
14666;BMP280;7420;53.574;10.040;2022-12-07T10:05:19;101134.66;;;3.71
14666;BMP280;7420;53.574;10.040;2022-12-07T10:07:46;101133.03;;;3.70
14666;BMP280;7420;53.574;10.040;2022-12-07T10:10:15;101137.31;;;3.71
14666;BMP280;7420;53.574;10.040;2022-12-07T10:13:34;101129.25;;;3.72
14666;BMP280;7420;53.574;10.040;2022-12-07T10:15:41;101129.75;;;3.76
14666;BMP280;7420;53.574;10.040;2022-12-07T10:18:17;101128.25;;;3.73
14666;BMP280;7420;53.574;10.040;2022-12-07T10:20:44;101118.63;;;3.82
14666;BMP280;7420;53.574;10.040;2022-12-07T10:23:17;101124.09;;;3.88
14666;BMP280;7420;53.574;10.040;2022-12-07T10:25:42;101130.16;;;3.89
14666;BMP280;7420;53.574;10.040;2022-12-07T10:30:45;101121.84;;;3.76
14666;BMP280;7420;53.574;10.040;2022-12-07T10:35:54;101124.09;;;3.88
14666;BMP280;7420;53.574;10.040;2022-12-07T10:38:20;101127.03;;;3.85
14666;BMP280;7420;53.574;10.040;2022-12-07T10:40:45;101119.34;;;3.92
14666;BMP280;7420;53.574;10.040;2022-12-07T10:48:29;101123.66;;;4.01
14666;BMP280;7420;53.574;10.040;2022-12-07T10:51:02;101124.53;;;4.09
14666;BMP280;7420;53.574;10.040;2022-12-07T11:01:25;101115.56;;;4.28
14666;BMP280;7420;53.574;10.040;2022-12-07T11:08:52;101103.75;;;4.40
14666;BMP280;7420;53.574;10.040;2022-12-07T11:19:06;101103.88;;;4.22
14666;BMP280;7420;53.574;10.040;2022-12-07T11:36:58;101090.22;;;4.27
14666;BMP280;7420;53.574;10.040;2022-12-07T11:39:35;101088.59;;;4.34
14666;BMP280;7420;53.574;10.040;2022-12-07T11:44:53;101084.03;;;4.44
14666;BMP280;7420;53.574;10.040;2022-12-07T11:47:22;101076.47;;;4.49
14666;BMP280;7420;53.574;10.040;2022-12-07T11:49:54;101077.47;;;4.55
14666;BMP280;7420;53.574;10.040;2022-12-07T11:54:45;101066.28;;;4.53
14666;BMP280;7420;53.574;10.040;2022-12-07T11:57:22;101070.38;;;4.48
14666;BMP280;7420;53.574;10.040;2022-12-07T11:59:52;101074.38;;;4.60
14666;BMP280;7420;53.574;10.040;2022-12-07T12:02:36;101073.06;;;4.72
14666;BMP280;7420;53.574;10.040;2022-12-07T12:05:11;101059.84;;;5.60
14666;BMP280;7420;53.574;10.040;2022-12-07T12:07:37;101068.59;;;5.60
14666;BMP280;7420;53.574;10.040;2022-12-07T12:10:05;101073.81;;;5.84
14666;BMP280;7420;53.574;10.040;2022-12-07T12:12:40;101068.53;;;6.30
14666;BMP280;7420;53.574;10.040;2022-12-07T12:20:40;101060.16;;;8.11
14666;BMP280;7420;53.574;10.040;2022-12-07T12:23:11;101071.06;;;6.77
14666;BMP280;7420;53.574;10.040;2022-12-07T12:25:39;101064.66;;;6.93
14666;BMP280;7420;53.574;10.040;2022-12-07T12:28:05;101066.34;;;7.46
14666;BMP280;7420;53.574;10.040;2022-12-07T12:33:03;101053.19;;;9.71
14666;BMP280;7420;53.574;10.040;2022-12-07T12:35:36;101054.81;;;7.90
14666;BMP280;7420;53.574;10.040;2022-12-07T12:40:45;101033.88;;;11.09
14666;BMP280;7420;53.574;10.040;2022-12-07T12:49:19;101034.78;;;12.49
14666;BMP280;7420;53.574;10.040;2022-12-07T12:51:41;101039.09;;;13.43
14666;BMP280;7420;53.574;10.040;2022-12-07T12:56:48;101051.34;;;10.45
14666;BMP280;7420;53.574;10.040;2022-12-07T12:59:26;101042.88;;;11.73
14666;BMP280;7420;53.574;10.040;2022-12-07T13:01:54;101040.84;;;12.69
14666;BMP280;7420;53.574;10.040;2022-12-07T13:04:24;101041.50;;;10.33
14666;BMP280;7420;53.574;10.040;2022-12-07T13:06:50;101040.75;;;9.16
14666;BMP280;7420;53.574;10.040;2022-12-07T13:09:25;101049.03;;;8.30
14666;BMP280;7420;53.574;10.040;2022-12-07T13:11:56;101043.53;;;8.67
14666;BMP280;7420;53.574;10.040;2022-12-07T13:17:12;101037.38;;;9.90
14666;BMP280;7420;53.574;10.040;2022-12-07T13:19:54;101038.09;;;8.54
14666;BMP280;7420;53.574;10.040;2022-12-07T13:27:37;101041.38;;;5.83
14666;BMP280;7420;53.574;10.040;2022-12-07T13:30:09;101053.03;;;5.73
14666;BMP280;7420;53.574;10.040;2022-12-07T13:32:38;101040.13;;;5.48
14666;BMP280;7420;53.574;10.040;2022-12-07T13:35:26;101054.25;;;5.55
14666;BMP280;7420;53.574;10.040;2022-12-07T13:37:48;101048.09;;;5.70
14666;BMP280;7420;53.574;10.040;2022-12-07T13:40:20;101057.13;;;5.13
14666;BMP280;7420;53.574;10.040;2022-12-07T13:42:46;101047.91;;;5.25
14666;BMP280;7420;53.574;10.040;2022-12-07T13:45:22;101059.75;;;5.29
14666;BMP280;7420;53.574;10.040;2022-12-07T13:48:08;101048.06;;;5.00
14666;BMP280;7420;53.574;10.040;2022-12-07T13:50:38;101061.41;;;5.06
14666;BMP280;7420;53.574;10.040;2022-12-07T13:53:07;101055.47;;;5.12
14666;BMP280;7420;53.574;10.040;2022-12-07T13:55:36;101048.53;;;5.03
14666;BMP280;7420;53.574;10.040;2022-12-07T13:58:08;101047.75;;;5.03
14666;BMP280;7420;53.574;10.040;2022-12-07T14:00:34;101061.72;;;4.79
14666;BMP280;7420;53.574;10.040;2022-12-07T14:03:00;101058.72;;;4.66
14666;BMP280;7420;53.574;10.040;2022-12-07T14:05:35;101058.06;;;4.56
14666;BMP280;7420;53.574;10.040;2022-12-07T14:12:58;101060.16;;;4.45
14666;BMP280;7420;53.574;10.040;2022-12-07T14:15:28;101040.94;;;4.60
14666;BMP280;7420;53.574;10.040;2022-12-07T14:17:54;101044.06;;;4.56
14666;BMP280;7420;53.574;10.040;2022-12-07T14:23:25;101044.25;;;4.94
14666;BMP280;7420;53.574;10.040;2022-12-07T14:25:51;101044.25;;;4.70
14666;BMP280;7420;53.574;10.040;2022-12-07T14:28:30;101049.00;;;4.51
14666;BMP280;7420;53.574;10.040;2022-12-07T14:30:56;101048.81;;;4.52
14666;BMP280;7420;53.574;10.040;2022-12-07T14:33:21;101057.31;;;4.23
14666;BMP280;7420;53.574;10.040;2022-12-07T14:35:47;101049.28;;;4.32
14666;BMP280;7420;53.574;10.040;2022-12-07T14:38:14;101055.66;;;4.22
14666;BMP280;7420;53.574;10.040;2022-12-07T14:40:39;101065.19;;;4.23
14666;BMP280;7420;53.574;10.040;2022-12-07T14:43:06;101057.66;;;4.28
14666;BMP280;7420;53.574;10.040;2022-12-07T14:45:34;101048.28;;;4.25
14666;BMP280;7420;53.574;10.040;2022-12-07T14:47:59;101061.50;;;4.00
14666;BMP280;7420;53.574;10.040;2022-12-07T14:50:24;101060.44;;;3.85
14666;BMP280;7420;53.574;10.040;2022-12-07T14:52:52;101059.00;;;3.90
14666;BMP280;7420;53.574;10.040;2022-12-07T14:55:26;101058.13;;;3.82
14666;BMP280;7420;53.574;10.040;2022-12-07T14:57:51;101047.56;;;3.74
14666;BMP280;7420;53.574;10.040;2022-12-07T15:00:17;101056.72;;;3.62
14666;BMP280;7420;53.574;10.040;2022-12-07T15:02:44;101057.09;;;3.67
14666;BMP280;7420;53.574;10.040;2022-12-07T15:05:10;101060.69;;;3.66
14666;BMP280;7420;53.574;10.040;2022-12-07T15:07:35;101057.41;;;3.64
14666;BMP280;7420;53.574;10.040;2022-12-07T15:10:01;101065.94;;;3.66
14666;BMP280;7420;53.574;10.040;2022-12-07T15:12:26;101065.94;;;3.66
14666;BMP280;7420;53.574;10.040;2022-12-07T15:14:52;101062.53;;;3.48
14666;BMP280;7420;53.574;10.040;2022-12-07T15:17:17;101059.25;;;3.46
14666;BMP280;7420;53.574;10.040;2022-12-07T15:19:42;101063.09;;;3.34
14666;BMP280;7420;53.574;10.040;2022-12-07T15:22:08;101067.44;;;3.43
14666;BMP280;7420;53.574;10.040;2022-12-07T15:24:35;101064.81;;;3.43
14666;BMP280;7420;53.574;10.040;2022-12-07T15:27:01;101062.13;;;3.35
14666;BMP280;7420;53.574;10.040;2022-12-07T15:29:26;101074.28;;;3.36
14666;BMP280;7420;53.574;10.040;2022-12-07T15:31:51;101062.63;;;3.13
14666;BMP280;7420;53.574;10.040;2022-12-07T15:34:17;101061.41;;;3.25
14666;BMP280;7420;53.574;10.040;2022-12-07T15:36:42;101058.22;;;3.14
14666;BMP280;7420;53.574;10.040;2022-12-07T15:39:08;101065.19;;;3.05
14666;BMP280;7420;53.574;10.040;2022-12-07T15:41:33;101057.53;;;3.12
14666;BMP280;7420;53.574;10.040;2022-12-07T15:43:59;101063.22;;;3.07
14666;BMP280;7420;53.574;10.040;2022-12-07T15:46:43;101062.44;;;3.07
14666;BMP280;7420;53.574;10.040;2022-12-07T15:49:13;101062.44;;;3.07
14666;BMP280;7420;53.574;10.040;2022-12-07T15:51:39;101056.25;;;2.98
14666;BMP280;7420;53.574;10.040;2022-12-07T15:54:04;101054.25;;;2.92
14666;BMP280;7420;53.574;10.040;2022-12-07T15:56:29;101058.59;;;2.84
14666;BMP280;7420;53.574;10.040;2022-12-07T15:58:55;101067.84;;;2.88
14666;BMP280;7420;53.574;10.040;2022-12-07T16:01:21;101051.47;;;2.94
14666;BMP280;7420;53.574;10.040;2022-12-07T16:03:46;101047.38;;;2.91